Time;durP1;ratioP1;P1;durP2;ratioP2;P2;SDS_P1;SDS_P2;PMS_P1;PMS_P2;Temp;Humidity;BMP_temperature;BMP_pressure;BME280_temperature;BME280_humidity;BME280_pressure;Samples;Min_cycle;Max_cycle;Signal;HPM_P1;HPM_P2
2020/12/09 00:00:50;;;;;;;251.48;57.40;;;2.70;99.90;;;;;;5057073;28;21047;-72
2020/12/09 00:03:16;;;;;;;129.02;44.78;;;2.80;99.90;;;;;;5055781;28;20036;-72
2020/12/09 00:05:42;;;;;;;231.25;50.05;;;2.70;99.90;;;;;;5060513;28;20094;-72
2020/12/09 00:08:09;;;;;;;195.15;49.42;;;2.70;99.90;;;;;;5055545;28;20021;-72
2020/12/09 00:10:35;;;;;;;193.02;51.08;;;2.50;99.90;;;;;;5063863;28;20032;-72
2020/12/09 00:13:01;;;;;;;154.65;45.47;;;2.50;99.90;;;;;;5054133;28;20033;-72
2020/12/09 00:15:26;;;;;;;221.30;53.28;;;2.60;99.90;;;;;;5052280;28;20024;-72
2020/12/09 00:17:52;;;;;;;164.50;46.88;;;2.60;99.90;;;;;;5055015;28;20045;-72
2020/12/09 00:20:18;;;;;;;190.30;49.95;;;2.50;99.90;;;;;;5056887;28;20031;-72
2020/12/09 00:22:43;;;;;;;190.82;50.40;;;2.50;99.90;;;;;;5051813;28;20031;-72
2020/12/09 00:25:09;;;;;;;151.20;55.88;;;2.50;99.90;;;;;;5052640;28;20052;-72
2020/12/09 00:27:35;;;;;;;156.43;47.45;;;2.40;99.90;;;;;;5054559;28;20028;-72
2020/12/09 00:30:02;;;;;;;129.43;46.85;;;2.40;99.90;;;;;;5059825;28;20489;-72
2020/12/09 00:32:30;;;;;;;185.10;54.90;;;2.50;99.90;;;;;;5052341;28;20021;-72
2020/12/09 00:34:55;;;;;;;148.65;47.13;;;2.50;99.90;;;;;;5059998;28;20029;-72
2020/12/09 00:37:21;;;;;;;182.82;52.70;;;2.50;99.90;;;;;;5058254;28;20098;-72
2020/12/09 00:39:47;;;;;;;128.50;45.97;;;2.50;99.90;;;;;;5051944;28;20059;-72
2020/12/09 00:42:13;;;;;;;164.23;48.38;;;2.40;99.90;;;;;;5054098;28;20392;-72
2020/12/09 00:44:39;;;;;;;175.02;52.45;;;2.50;99.90;;;;;;5054199;28;20025;-72
2020/12/09 00:47:04;;;;;;;136.88;53.45;;;2.40;99.90;;;;;;5052758;28;20033;-72
2020/12/09 00:49:31;;;;;;;251.38;59.08;;;2.40;99.90;;;;;;5067896;28;20450;-72
2020/12/09 00:51:57;;;;;;;136.82;49.35;;;2.30;99.90;;;;;;5055528;28;20059;-72
2020/12/09 00:54:23;;;;;;;115.43;47.55;;;2.40;99.90;;;;;;5057990;28;20458;-72
2020/12/09 00:56:49;;;;;;;159.43;47.67;;;2.40;99.90;;;;;;5056570;28;20053;-72
2020/12/09 00:59:14;;;;;;;131.98;44.90;;;2.40;99.90;;;;;;5051662;28;20041;-72
2020/12/09 01:01:40;;;;;;;115.82;47.20;;;2.30;99.90;;;;;;5057433;28;20020;-72
2020/12/09 01:04:06;;;;;;;224.75;57.45;;;2.40;99.90;;;;;;5056625;28;20025;-72
2020/12/09 01:06:35;;;;;;;100.32;46.40;;;2.40;99.90;;;;;;5062929;28;20452;-72
2020/12/09 01:09:07;;;;;;;107.97;45.97;;;2.40;99.90;;;;;;5058209;28;20028;-72
2020/12/09 01:11:33;;;;;;;98.75;42.58;;;2.40;99.90;;;;;;5058373;28;20098;-72
2020/12/09 01:13:59;;;;;;;116.88;45.90;;;2.40;99.90;;;;;;5056567;28;20428;-72
2020/12/09 01:16:24;;;;;;;102.05;44.95;;;2.50;99.90;;;;;;5053785;28;20040;-72
2020/12/09 01:18:50;;;;;;;95.72;43.55;;;2.50;99.90;;;;;;5063460;28;20032;-72
2020/12/09 01:21:25;;;;;;;92.78;42.33;;;2.50;99.90;;;;;;5055229;28;20021;-72
2020/12/09 01:23:51;;;;;;;103.60;45.33;;;2.50;99.90;;;;;;5056832;28;20063;-72
2020/12/09 01:26:16;;;;;;;99.35;44.53;;;2.60;99.90;;;;;;5056848;28;20053;-72
2020/12/09 01:28:42;;;;;;;116.05;45.72;;;2.60;99.90;;;;;;5065538;28;20044;-72
2020/12/09 01:31:07;;;;;;;107.80;43.10;;;2.60;99.90;;;;;;5065557;28;20036;-73
2020/12/09 01:33:33;;;;;;;136.00;51.42;;;2.60;99.90;;;;;;5062649;28;20039;-72
2020/12/09 01:35:59;;;;;;;107.30;44.75;;;2.60;99.90;;;;;;5068326;28;20127;-72
2020/12/09 01:38:24;;;;;;;104.85;41.85;;;2.60;99.90;;;;;;5067794;28;20037;-72
2020/12/09 01:40:54;;;;;;;116.40;45.38;;;2.60;99.90;;;;;;5064881;28;20032;-72
2020/12/09 01:43:19;;;;;;;107.10;44.58;;;2.60;99.90;;;;;;5059314;28;20731;-72
2020/12/09 01:45:45;;;;;;;109.50;43.75;;;2.60;99.90;;;;;;5060363;28;20474;-72
2020/12/09 01:48:11;;;;;;;117.30;46.15;;;2.60;99.90;;;;;;5055281;28;20036;-72
2020/12/09 01:50:37;;;;;;;102.07;44.40;;;2.70;99.90;;;;;;5055873;28;20025;-73
2020/12/09 01:53:03;;;;;;;119.63;47.05;;;2.70;99.90;;;;;;5055368;28;20481;-72
2020/12/09 01:55:29;;;;;;;109.07;48.80;;;2.80;99.90;;;;;;5057574;28;20032;-72
2020/12/09 01:57:54;;;;;;;120.10;48.67;;;2.80;99.90;;;;;;5059394;28;20037;-72
2020/12/09 02:00:20;;;;;;;114.65;48.38;;;2.80;99.90;;;;;;5058369;28;20067;-73
2020/12/09 02:02:46;;;;;;;119.68;50.45;;;2.80;99.90;;;;;;5058997;28;20033;-72
2020/12/09 02:05:11;;;;;;;99.13;46.25;;;2.80;99.90;;;;;;5069026;28;20485;-72
2020/12/09 02:07:37;;;;;;;103.22;45.33;;;2.80;99.90;;;;;;5057027;28;20408;-72
2020/12/09 02:10:06;;;;;;;114.68;47.20;;;2.90;99.90;;;;;;5063355;28;20061;-72
2020/12/09 02:12:34;;;;;;;116.35;48.40;;;2.90;99.90;;;;;;5060918;28;20056;-73
2020/12/09 02:15:01;;;;;;;110.60;45.85;;;2.90;99.90;;;;;;5060690;28;20024;-72
2020/12/09 02:17:26;;;;;;;122.45;48.75;;;2.90;99.90;;;;;;5063457;28;20095;-72
2020/12/09 02:19:52;;;;;;;106.97;47.15;;;2.90;99.90;;;;;;5054608;28;20079;-72
2020/12/09 02:22:18;;;;;;;103.03;47.47;;;2.90;99.90;;;;;;5059019;28;20025;-73
2020/12/09 02:24:43;;;;;;;103.85;45.22;;;2.90;99.90;;;;;;5062120;28;20028;-73
2020/12/09 02:27:10;;;;;;;111.60;46.47;;;2.90;99.90;;;;;;5055236;28;20044;-71
2020/12/09 02:29:35;;;;;;;147.98;50.25;;;2.90;99.90;;;;;;5054047;28;20028;-72
2020/12/09 02:32:01;;;;;;;116.85;48.25;;;2.90;99.90;;;;;;5060521;28;20225;-73
2020/12/09 02:34:26;;;;;;;111.60;47.45;;;2.90;99.90;;;;;;5064046;28;20056;-72
2020/12/09 02:36:52;;;;;;;104.57;44.63;;;2.90;99.90;;;;;;5057568;28;20024;-73
2020/12/09 02:39:31;;;;;;;137.82;51.03;;;2.90;99.90;;;;;;5056083;28;20037;-73
2020/12/09 02:41:57;;;;;;;119.65;48.90;;;2.90;99.90;;;;;;5051966;28;20079;-72
2020/12/09 02:44:22;;;;;;;108.45;47.15;;;3.00;99.90;;;;;;5059263;28;20029;-72
2020/12/09 02:46:48;;;;;;;118.40;47.42;;;2.90;99.90;;;;;;5057416;28;20021;-73
2020/12/09 02:49:14;;;;;;;114.45;49.30;;;2.90;99.90;;;;;;5061859;28;20025;-73
2020/12/09 02:51:39;;;;;;;104.60;46.55;;;2.90;99.90;;;;;;5059706;28;20025;-73
2020/12/09 02:54:05;;;;;;;102.53;47.40;;;2.80;99.90;;;;;;5053499;28;20446;-73
2020/12/09 02:56:30;;;;;;;104.93;44.92;;;2.70;99.90;;;;;;5058320;28;20040;-73
2020/12/09 02:58:56;;;;;;;108.55;45.78;;;2.80;99.90;;;;;;5056653;28;20099;-73
2020/12/09 03:01:22;;;;;;;107.70;45.60;;;2.80;99.90;;;;;;5055782;28;20039;-73
2020/12/09 03:03:47;;;;;;;103.97;46.30;;;2.70;99.90;;;;;;5062791;28;20056;-73
2020/12/09 03:06:13;;;;;;;113.72;46.45;;;2.80;99.90;;;;;;5056293;28;20024;-73
2020/12/09 03:08:39;;;;;;;108.05;46.38;;;2.80;99.90;;;;;;5053476;28;20036;-73
2020/12/09 03:11:04;;;;;;;105.78;47.05;;;2.80;99.90;;;;;;5061191;28;20040;-73
2020/12/09 03:13:30;;;;;;;99.80;45.45;;;2.80;99.90;;;;;;5054023;28;20086;-73
2020/12/09 03:15:56;;;;;;;93.68;43.55;;;2.80;99.90;;;;;;5056104;28;20051;-73
2020/12/09 03:18:21;;;;;;;91.82;44.03;;;2.70;99.90;;;;;;5054500;28;20041;-73
2020/12/09 03:20:47;;;;;;;97.60;45.03;;;2.80;99.90;;;;;;5058686;28;20108;-73
2020/12/09 03:23:13;;;;;;;102.53;43.92;;;2.70;99.90;;;;;;5056795;28;20051;-73
2020/12/09 03:25:38;;;;;;;87.10;42.67;;;2.80;99.90;;;;;;5059213;28;20025;-73
2020/12/09 03:28:04;;;;;;;93.68;45.67;;;2.80;99.90;;;;;;5059068;28;20028;-74
2020/12/09 03:30:29;;;;;;;84.97;41.85;;;2.80;99.90;;;;;;5060592;28;20028;-73
2020/12/09 03:32:55;;;;;;;110.35;49.72;;;2.70;99.90;;;;;;5058843;28;20481;-74
2020/12/09 03:35:21;;;;;;;89.75;43.25;;;2.70;99.90;;;;;;5053705;28;20024;-73
2020/12/09 03:37:47;;;;;;;107.03;48.13;;;2.70;99.90;;;;;;5055203;28;20070;-74
2020/12/09 03:40:12;;;;;;;109.22;47.25;;;2.60;99.90;;;;;;5059063;28;20477;-73
2020/12/09 03:42:38;;;;;;;115.35;46.65;;;2.50;99.90;;;;;;5051794;28;20108;-74
2020/12/09 03:45:04;;;;;;;108.00;45.58;;;2.40;99.90;;;;;;5054464;28;20048;-73
2020/12/09 03:47:29;;;;;;;93.85;41.53;;;2.30;99.90;;;;;;5058472;28;20123;-73
2020/12/09 03:49:55;;;;;;;107.93;49.22;;;2.30;99.90;;;;;;5057762;28;20029;-73
2020/12/09 03:52:21;;;;;;;100.75;42.45;;;2.30;99.90;;;;;;5053894;28;20033;-73
2020/12/09 03:54:46;;;;;;;99.22;43.92;;;2.50;99.90;;;;;;5059070;28;20035;-73
2020/12/09 03:57:12;;;;;;;91.97;42.40;;;2.40;99.90;;;;;;5054389;28;20112;-73
2020/12/09 03:59:37;;;;;;;98.72;42.15;;;2.40;99.90;;;;;;5056784;28;20061;-73
2020/12/09 04:02:03;;;;;;;109.00;45.00;;;2.40;99.90;;;;;;5057198;28;20040;-73
2020/12/09 04:04:29;;;;;;;98.70;42.60;;;2.40;99.90;;;;;;5055665;28;20029;-73
2020/12/09 04:06:54;;;;;;;89.43;43.13;;;2.40;99.90;;;;;;5060680;28;20024;-73
2020/12/09 04:09:20;;;;;;;95.78;42.65;;;2.40;99.90;;;;;;5055270;28;20055;-73
2020/12/09 04:11:45;;;;;;;83.53;43.03;;;2.40;99.90;;;;;;5059130;28;20125;-74
2020/12/09 04:14:11;;;;;;;106.25;43.80;;;2.30;99.90;;;;;;5053426;28;20036;-73
2020/12/09 04:16:37;;;;;;;84.40;38.53;;;2.20;99.90;;;;;;5057577;28;20028;-73
2020/12/09 04:19:02;;;;;;;81.75;39.95;;;2.30;99.90;;;;;;5057150;28;20036;-74
2020/12/09 04:21:28;;;;;;;85.45;40.22;;;2.20;99.90;;;;;;5057974;28;20021;-69
2020/12/09 04:23:54;;;;;;;103.70;45.40;;;2.20;99.90;;;;;;5061267;28;20370;-74
2020/12/09 04:26:20;;;;;;;82.75;39.30;;;2.30;99.90;;;;;;5055176;28;20031;-74
2020/12/09 04:28:45;;;;;;;126.07;48.15;;;2.30;99.90;;;;;;5059986;28;20017;-73
2020/12/09 04:31:11;;;;;;;121.88;47.10;;;2.30;99.90;;;;;;5054550;28;20358;-74
2020/12/09 04:33:37;;;;;;;135.70;52.15;;;2.20;99.90;;;;;;5053640;28;20025;-73
2020/12/09 04:36:04;;;;;;;112.68;49.92;;;2.10;99.90;;;;;;5060170;28;20056;-73
2020/12/09 04:38:30;;;;;;;77.25;37.30;;;2.20;99.90;;;;;;5053385;28;20033;-74
2020/12/09 04:40:55;;;;;;;96.32;40.97;;;2.20;99.90;;;;;;5051631;28;20094;-74
2020/12/09 04:43:21;;;;;;;94.93;40.00;;;2.10;99.90;;;;;;5057793;28;20028;-73
2020/12/09 04:45:47;;;;;;;79.68;37.47;;;2.20;99.90;;;;;;5050039;28;20560;-73
2020/12/09 04:48:14;;;;;;;87.07;38.40;;;2.10;99.90;;;;;;5057000;28;20523;-73
2020/12/09 04:51:09;;;;;;;81.10;36.47;;;2.10;99.90;;;;;;5053261;28;20059;-73
2020/12/09 04:53:34;;;;;;;97.20;40.20;;;2.20;99.90;;;;;;5053913;28;20379;-73
2020/12/09 04:56:00;;;;;;;79.68;34.95;;;2.20;99.90;;;;;;5054455;28;20031;-73
2020/12/09 04:58:42;;;;;;;85.38;36.80;;;2.10;99.90;;;;;;5058477;28;20477;-73
2020/12/09 05:01:09;;;;;;;89.57;40.90;;;2.10;99.90;;;;;;5054151;28;20025;-73
2020/12/09 05:03:47;;;;;;;93.80;40.80;;;2.10;99.90;;;;;;5056585;28;20032;-73
2020/12/09 05:06:18;;;;;;;107.63;39.15;;;2.10;99.90;;;;;;5052451;28;20021;-73
2020/12/09 05:08:56;;;;;;;182.75;50.00;;;2.00;99.90;;;;;;5055867;28;20527;-73
2020/12/09 05:11:23;;;;;;;123.90;43.30;;;2.10;99.90;;;;;;5056406;28;20028;-73
2020/12/09 05:13:56;;;;;;;87.28;35.95;;;2.20;99.90;;;;;;5061181;28;20481;-73
2020/12/09 05:16:23;;;;;;;115.57;39.10;;;2.20;99.90;;;;;;5057736;28;20017;-73
2020/12/09 05:18:58;;;;;;;84.63;36.90;;;2.30;99.90;;;;;;5060834;28;20067;-73
2020/12/09 05:21:25;;;;;;;98.22;36.60;;;2.30;99.90;;;;;;5057044;28;20067;-73
2020/12/09 05:23:54;;;;;;;87.47;36.30;;;2.40;99.90;;;;;;5054662;28;20017;-73
2020/12/09 05:26:31;;;;;;;113.60;38.83;;;2.40;99.90;;;;;;5064023;28;20021;-73
2020/12/09 05:29:08;;;;;;;133.05;43.63;;;2.40;99.90;;;;;;5060199;28;20025;-73
2020/12/09 05:31:35;;;;;;;142.50;43.92;;;2.40;99.90;;;;;;5058531;28;20124;-73
2020/12/09 05:34:02;;;;;;;154.15;43.92;;;2.40;99.90;;;;;;5055051;28;20062;-74
2020/12/09 05:36:45;;;;;;;135.05;43.55;;;2.40;99.90;;;;;;5056815;28;20025;-74
2020/12/09 05:39:11;;;;;;;;;;;2.40;99.90;;;;;;5059341;28;20029;-71
2020/12/09 05:41:36;;;;;;;343.08;60.88;;;2.30;99.90;;;;;;5051983;28;20014;-74
2020/12/09 05:44:03;;;;;;;163.43;46.47;;;2.30;99.90;;;;;;5052529;28;20037;-74
2020/12/09 05:46:29;;;;;;;163.35;45.28;;;2.30;99.90;;;;;;5055720;28;20382;-73
2020/12/09 05:48:56;;;;;;;117.13;45.00;;;2.40;99.90;;;;;;5057469;28;20032;-74
2020/12/09 05:51:21;;;;;;;179.70;55.38;;;2.50;99.90;;;;;;5055413;28;20055;-73
2020/12/09 05:53:47;;;;;;;147.52;48.22;;;2.60;99.90;;;;;;5051907;28;20056;-73
2020/12/09 05:56:17;;;;;;;158.90;47.90;;;2.50;99.90;;;;;;5063512;28;20051;-73
2020/12/09 05:58:44;;;;;;;166.27;49.17;;;2.60;99.90;;;;;;5056247;28;20461;-73
2020/12/09 06:01:21;;;;;;;181.52;52.13;;;2.60;99.90;;;;;;5055593;28;20439;-73
2020/12/09 06:03:57;;;;;;;181.55;53.25;;;2.60;99.90;;;;;;5057945;28;20129;-73
2020/12/09 06:06:24;;;;;;;189.30;56.15;;;2.60;99.90;;;;;;5059120;28;20051;-73
2020/12/09 06:08:58;;;;;;;158.88;52.88;;;2.50;99.90;;;;;;5053007;28;20090;-73
2020/12/09 06:11:32;;;;;;;177.55;51.85;;;2.60;99.90;;;;;;5057117;28;20024;-73
2020/12/09 06:13:58;;;;;;;137.35;49.30;;;2.50;99.90;;;;;;5050622;28;20052;-73
2020/12/09 06:16:24;;;;;;;161.13;50.45;;;2.60;99.90;;;;;;5058073;28;20500;-73
2020/12/09 06:18:54;;;;;;;144.68;49.67;;;2.70;99.90;;;;;;5061069;28;20454;-73
2020/12/09 06:21:21;;;;;;;166.00;51.67;;;2.60;99.90;;;;;;5065690;28;20021;-73
2020/12/09 06:23:52;;;;;;;168.40;52.03;;;2.70;99.90;;;;;;5064667;28;20477;-73
2020/12/09 06:26:18;;;;;;;140.00;50.10;;;2.70;99.90;;;;;;5066790;28;20415;-73
2020/12/09 06:28:46;;;;;;;137.23;49.45;;;2.80;99.90;;;;;;5059329;28;20025;-73
2020/12/09 06:31:20;;;;;;;153.95;48.75;;;2.70;99.90;;;;;;5057312;28;20040;-74
2020/12/09 06:33:48;;;;;;;160.63;50.75;;;2.70;99.90;;;;;;5061310;28;20021;-74
2020/12/09 06:36:18;;;;;;;152.40;54.20;;;2.80;99.90;;;;;;5059084;28;20075;-73
2020/12/09 06:39:17;;;;;;;146.52;51.83;;;2.80;99.90;;;;;;5054450;28;20088;-73
2020/12/09 06:41:56;;;;;;;130.52;46.75;;;2.70;99.90;;;;;;5054853;28;20041;-72
2020/12/09 06:44:23;;;;;;;153.85;49.72;;;2.80;99.90;;;;;;5061525;28;20035;-73
2020/12/09 06:46:52;;;;;;;128.13;48.22;;;2.80;99.90;;;;;;5058719;28;20047;-74
2020/12/09 06:49:30;;;;;;;126.57;43.88;;;2.70;99.90;;;;;;5065327;28;20028;-73
2020/12/09 06:52:10;;;;;;;123.07;43.10;;;2.70;99.90;;;;;;5056843;28;20029;-74
2020/12/09 06:54:49;;;;;;;116.32;40.78;;;2.70;99.90;;;;;;5058680;28;20478;-74
2020/12/09 06:57:37;;;;;;;135.52;43.97;;;2.70;99.90;;;;;;5055368;28;20036;-74
2020/12/09 07:00:09;;;;;;;119.63;40.10;;;2.60;99.90;;;;;;5059890;28;20569;-74
2020/12/09 07:02:35;;;;;;;120.87;42.37;;;2.60;99.90;;;;;;5052305;28;20027;-73
2020/12/09 07:05:01;;;;;;;117.55;42.03;;;2.60;99.90;;;;;;5053663;28;20636;-73
2020/12/09 07:07:40;;;;;;;128.73;42.83;;;2.70;99.90;;;;;;5047885;28;20110;-73
2020/12/09 07:10:21;;;;;;;125.90;44.60;;;2.70;99.90;;;;;;5057705;28;20035;-73
2020/12/09 07:12:48;;;;;;;103.95;37.88;;;2.80;99.90;;;;;;5051898;28;20025;-74
2020/12/09 07:15:14;;;;;;;123.38;43.67;;;2.80;99.90;;;;;;5059499;28;20020;-74
2020/12/09 07:17:40;;;;;;;123.20;43.42;;;2.80;99.90;;;;;;5053732;28;20106;-73
2020/12/09 07:20:06;;;;;;;143.63;45.97;;;2.80;99.90;;;;;;5055192;28;20036;-73
2020/12/09 07:22:32;;;;;;;137.38;45.22;;;2.70;99.90;;;;;;5053153;28;20448;-74
2020/12/09 07:24:58;;;;;;;146.90;47.95;;;2.70;99.90;;;;;;5062426;28;20025;-74
2020/12/09 07:27:25;;;;;;;128.05;43.95;;;2.80;99.90;;;;;;5056982;28;20035;-74
2020/12/09 07:29:55;;;;;;;126.35;46.47;;;2.80;99.90;;;;;;5066525;28;20466;-74
2020/12/09 07:32:22;;;;;;;118.13;46.28;;;2.80;99.90;;;;;;5062226;28;20454;-74
2020/12/09 07:34:52;;;;;;;120.55;47.60;;;2.80;99.90;;;;;;5053212;28;20020;-74
2020/12/09 07:37:20;;;;;;;133.43;46.55;;;2.80;99.90;;;;;;5064852;28;20024;-73
2020/12/09 07:39:50;;;;;;;135.00;46.72;;;2.80;99.90;;;;;;5060067;28;20312;-74
2020/12/09 07:42:16;;;;;;;112.13;42.65;;;2.80;99.90;;;;;;5059702;28;20024;-74
2020/12/09 07:44:44;;;;;;;131.70;47.92;;;2.80;99.90;;;;;;5064114;28;20078;-74
2020/12/09 07:47:11;;;;;;;113.32;44.13;;;2.90;99.90;;;;;;5061432;28;20025;-73
2020/12/09 07:49:54;;;;;;;127.80;46.75;;;2.90;99.90;;;;;;5063092;28;20020;-73
2020/12/09 07:52:24;;;;;;;119.35;47.22;;;2.90;99.90;;;;;;5060121;28;20045;-73
2020/12/09 07:55:13;;;;;;;129.48;46.17;;;2.80;99.90;;;;;;5062791;28;20029;-73
2020/12/09 07:57:40;;;;;;;121.65;46.95;;;2.80;99.90;;;;;;5059273;28;20040;-73
2020/12/09 08:00:16;;;;;;;123.03;47.10;;;2.80;99.90;;;;;;5062659;28;20082;-72
2020/12/09 08:02:44;;;;;;;119.78;44.63;;;2.80;99.90;;;;;;5058482;28;20033;-73
2020/12/09 08:05:17;;;;;;;116.90;45.13;;;2.70;99.90;;;;;;5063193;28;20016;-73
2020/12/09 08:07:47;;;;;;;;;;;2.80;99.90;;;;;;5063555;28;20025;-71
2020/12/09 08:10:12;;;;;;;112.78;43.50;;;2.80;99.90;;;;;;5050056;28;19917;-73
2020/12/09 08:12:41;;;;;;;113.40;45.35;;;2.80;99.90;;;;;;5056951;28;20122;-74
2020/12/09 08:15:07;;;;;;;119.03;45.15;;;2.90;99.90;;;;;;5058379;28;20074;-73
2020/12/09 08:17:33;;;;;;;111.57;44.22;;;2.80;99.90;;;;;;5054866;28;20504;-75
2020/12/09 08:20:08;;;;;;;110.68;46.85;;;2.80;99.90;;;;;;5052900;28;20036;-72
2020/12/09 08:23:00;;;;;;;119.28;51.92;;;2.90;99.90;;;;;;5056544;28;20028;-74
2020/12/09 08:25:30;;;;;;;102.57;42.92;;;2.80;99.90;;;;;;5056992;28;20024;-75
2020/12/09 08:28:03;;;;;;;105.45;41.17;;;2.80;99.90;;;;;;5054615;28;20045;-75
2020/12/09 08:30:29;;;;;;;110.68;43.30;;;2.80;99.90;;;;;;5056307;28;20096;-75
2020/12/09 08:33:10;;;;;;;109.43;44.28;;;2.80;99.90;;;;;;5060068;28;20033;-74
2020/12/09 08:35:48;;;;;;;111.05;44.10;;;2.80;99.90;;;;;;5056752;28;20028;-74
2020/12/09 08:38:42;;;;;;;109.70;42.00;;;2.80;99.90;;;;;;5053527;28;20025;-74
2020/12/09 08:41:14;;;;;;;103.55;43.38;;;2.80;99.90;;;;;;5049078;28;20102;-74
2020/12/09 08:43:41;;;;;;;108.85;44.85;;;2.80;99.90;;;;;;5057016;28;20490;-74
2020/12/09 08:46:09;;;;;;;101.78;41.38;;;2.80;99.90;;;;;;5053714;28;20474;-73
2020/12/09 08:48:35;;;;;;;112.40;44.03;;;2.80;99.90;;;;;;5053140;28;20020;-74
2020/12/09 08:51:01;;;;;;;107.43;41.33;;;3.00;99.90;;;;;;5051912;28;20454;-74
2020/12/09 08:53:27;;;;;;;107.25;42.15;;;3.00;99.90;;;;;;5056360;28;20096;-74
2020/12/09 08:55:53;;;;;;;109.90;42.13;;;3.10;99.90;;;;;;5052861;28;20022;-72
2020/12/09 08:58:19;;;;;;;115.30;43.05;;;3.20;99.90;;;;;;5052297;28;20470;-74
2020/12/09 09:00:46;;;;;;;112.13;41.58;;;3.10;99.90;;;;;;5050951;28;20031;-75
2020/12/09 09:03:16;;;;;;;112.85;42.65;;;3.10;99.90;;;;;;5055935;28;20675;-77
2020/12/09 09:05:43;;;;;;;99.13;39.70;;;3.10;99.90;;;;;;5053274;28;20021;-74
2020/12/09 09:08:09;;;;;;;106.18;41.97;;;3.00;99.90;;;;;;5057657;28;20020;-74
2020/12/09 09:10:36;;;;;;;97.25;38.60;;;3.00;99.90;;;;;;5051165;28;20036;-74
2020/12/09 09:13:02;;;;;;;97.22;40.28;;;2.90;99.90;;;;;;5052494;28;20031;-73
2020/12/09 09:15:28;;;;;;;106.90;40.80;;;3.00;99.90;;;;;;5051362;28;20048;-73
2020/12/09 09:17:53;;;;;;;97.05;38.53;;;3.00;99.90;;;;;;5052670;28;20069;-74
2020/12/09 09:20:19;;;;;;;108.90;40.80;;;3.00;99.90;;;;;;5051122;28;20074;-73
2020/12/09 09:22:45;;;;;;;109.38;40.75;;;3.00;99.90;;;;;;5052363;28;20124;-74
2020/12/09 09:25:11;;;;;;;105.10;40.22;;;3.00;99.90;;;;;;5055090;28;20021;-73
2020/12/09 09:27:37;;;;;;;109.57;40.50;;;3.00;99.90;;;;;;5060105;28;20044;-73
2020/12/09 09:30:07;;;;;;;105.57;41.13;;;3.00;99.90;;;;;;5051022;28;20060;-74
2020/12/09 09:32:33;;;;;;;96.35;39.25;;;3.10;99.90;;;;;;5051600;28;20032;-74
2020/12/09 09:34:59;;;;;;;93.90;36.10;;;3.10;99.90;;;;;;5051609;28;20391;-73
2020/12/09 09:37:25;;;;;;;98.53;39.55;;;3.00;99.90;;;;;;5050902;28;20021;-73
2020/12/09 09:39:50;;;;;;;100.88;38.53;;;3.10;99.90;;;;;;5047718;28;20060;-73
2020/12/09 09:42:17;;;;;;;97.68;37.83;;;3.10;99.90;;;;;;5052453;28;20103;-73
2020/12/09 09:44:46;;;;;;;83.03;34.58;;;3.20;99.90;;;;;;5052804;28;20381;-73
2020/12/09 09:47:12;;;;;;;88.95;37.03;;;3.10;99.90;;;;;;5053258;28;20374;-72
2020/12/09 09:49:38;;;;;;;83.60;35.65;;;3.10;99.90;;;;;;5056309;28;20104;-74
2020/12/09 09:52:05;;;;;;;82.30;33.78;;;3.20;99.90;;;;;;5055710;28;20029;-73
2020/12/09 09:54:31;;;;;;;83.30;35.70;;;3.20;99.90;;;;;;5057380;28;20431;-72
2020/12/09 09:56:57;;;;;;;89.70;37.50;;;3.20;99.90;;;;;;5066058;28;20052;-73
2020/12/09 09:59:22;;;;;;;84.78;35.20;;;3.40;99.90;;;;;;5061749;28;20453;-73
2020/12/09 10:01:48;;;;;;;89.80;38.72;;;3.30;99.90;;;;;;5061344;28;20074;-73
2020/12/09 10:04:13;;;;;;;95.00;38.72;;;3.30;99.90;;;;;;5060269;28;20502;-73
2020/12/09 10:06:39;;;;;;;82.97;35.92;;;3.20;99.90;;;;;;5058765;28;20100;-73
2020/12/09 10:09:07;;;;;;;84.47;35.47;;;3.20;99.90;;;;;;5057457;28;20097;-72
2020/12/09 10:11:39;;;;;;;93.70;38.55;;;3.30;99.90;;;;;;5061629;28;20032;-74
2020/12/09 10:14:08;;;;;;;91.80;38.15;;;3.40;99.90;;;;;;5056021;28;20220;-73
2020/12/09 10:16:34;;;;;;;97.40;38.75;;;3.40;99.90;;;;;;5055875;28;20025;-73
2020/12/09 10:19:00;;;;;;;86.43;37.22;;;3.50;99.90;;;;;;5052441;28;20452;-73
2020/12/09 10:21:31;;;;;;;82.35;35.92;;;3.50;99.90;;;;;;5052588;28;20489;-73
2020/12/09 10:23:58;;;;;;;87.63;37.95;;;3.70;99.90;;;;;;5056694;28;20051;-73
2020/12/09 10:26:32;;;;;;;79.60;34.53;;;3.70;99.90;;;;;;5052784;28;20445;-73
2020/12/09 10:29:02;;;;;;;77.57;34.40;;;3.70;99.90;;;;;;5057957;28;20385;-74
2020/12/09 10:31:35;;;;;;;78.75;34.47;;;3.70;99.90;;;;;;5056690;28;21074;-74
2020/12/09 10:34:01;;;;;;;77.70;34.70;;;3.80;99.90;;;;;;5058309;28;20112;-73
2020/12/09 10:36:27;;;;;;;78.45;34.45;;;3.80;99.90;;;;;;5057175;28;20056;-74
2020/12/09 10:38:53;;;;;;;80.13;36.20;;;3.90;99.90;;;;;;5071196;28;20063;-73
2020/12/09 10:41:19;;;;;;;77.35;35.75;;;3.90;99.90;;;;;;5054976;28;20028;-74
2020/12/09 10:43:45;;;;;;;80.15;33.83;;;4.00;99.90;;;;;;5057921;28;20342;-73
2020/12/09 10:46:10;;;;;;;72.90;33.92;;;3.90;99.90;;;;;;5059957;28;20500;-73
2020/12/09 10:48:36;;;;;;;76.10;34.72;;;4.00;99.90;;;;;;5053351;28;20025;-73
2020/12/09 10:51:04;;;;;;;67.65;31.83;;;3.90;99.90;;;;;;5057425;28;20037;-74
2020/12/09 10:53:30;;;;;;;71.68;32.80;;;3.60;99.90;;;;;;5055695;28;20027;-74
2020/12/09 10:55:59;;;;;;;65.50;31.85;;;3.50;99.90;;;;;;5054749;28;20378;-74
2020/12/09 10:58:26;;;;;;;77.20;32.42;;;3.60;99.90;;;;;;5052885;28;20040;-72
2020/12/09 11:00:52;;;;;;;75.07;33.53;;;3.60;99.90;;;;;;5055624;28;20013;-74
2020/12/09 11:03:17;;;;;;;69.45;34.20;;;3.70;99.90;;;;;;5057506;28;20028;-72
2020/12/09 11:05:43;;;;;;;70.75;31.92;;;3.80;99.90;;;;;;5062339;28;20025;-74
2020/12/09 11:08:09;;;;;;;74.28;32.85;;;3.90;99.90;;;;;;5067922;28;20032;-72
2020/12/09 11:10:35;;;;;;;75.82;35.63;;;4.00;99.90;;;;;;5061073;28;20063;-73
2020/12/09 11:13:00;;;;;;;73.07;34.05;;;4.10;99.90;;;;;;5059597;28;20037;-73
2020/12/09 11:15:26;;;;;;;67.15;30.63;;;4.10;99.90;;;;;;5066773;28;20025;-73
2020/12/09 11:17:52;;;;;;;70.25;33.75;;;4.10;99.90;;;;;;5065441;28;20036;-72
2020/12/09 11:20:18;;;;;;;71.88;35.47;;;4.20;99.90;;;;;;5052438;28;20017;-72
2020/12/09 11:22:43;;;;;;;74.43;36.58;;;4.20;99.90;;;;;;5057492;28;20124;-73
2020/12/09 11:25:09;;;;;;;76.38;37.65;;;4.10;99.90;;;;;;5056456;28;20024;-73
2020/12/09 11:27:35;;;;;;;75.80;34.72;;;4.10;99.90;;;;;;5062716;28;21056;-73
2020/12/09 11:30:01;;;;;;;75.35;35.55;;;4.10;99.90;;;;;;5063207;28;20535;-74
2020/12/09 11:32:34;;;;;;;78.25;37.67;;;4.20;99.90;;;;;;5056654;28;20083;-74
2020/12/09 11:35:00;;;;;;;75.28;35.55;;;4.40;99.90;;;;;;5063037;28;20028;-74
2020/12/09 11:37:26;;;;;;;70.95;33.35;;;4.40;99.90;;;;;;5059277;28;20043;-74
2020/12/09 11:39:53;;;;;;;71.50;35.25;;;4.30;99.90;;;;;;5055461;28;20094;-73
2020/12/09 11:42:18;;;;;;;72.47;34.17;;;4.40;99.90;;;;;;5061937;28;20020;-73
2020/12/09 11:44:44;;;;;;;70.43;33.28;;;4.30;99.90;;;;;;5059542;28;20435;-74
2020/12/09 11:47:10;;;;;;;69.47;32.67;;;4.20;99.90;;;;;;5061994;28;20059;-72
2020/12/09 11:49:36;;;;;;;70.28;33.75;;;4.20;99.90;;;;;;5069897;28;20072;-74
2020/12/09 11:52:01;;;;;;;65.53;34.42;;;4.40;99.90;;;;;;5058959;28;20028;-73
2020/12/09 11:54:27;;;;;;;61.20;32.20;;;4.30;99.90;;;;;;5051743;28;20025;-74
2020/12/09 11:56:56;;;;;;;62.78;31.55;;;4.30;99.90;;;;;;5054900;28;20465;-73
2020/12/09 11:59:23;;;;;;;66.68;33.50;;;4.30;99.90;;;;;;5061397;28;20028;-73
2020/12/09 12:01:48;;;;;;;66.13;33.63;;;4.50;99.90;;;;;;5052807;28;20075;-73
2020/12/09 12:04:14;;;;;;;61.03;30.73;;;4.50;99.90;;;;;;5052980;28;20067;-73
2020/12/09 12:06:39;;;;;;;62.55;31.58;;;4.50;99.90;;;;;;5053901;28;20014;-73
2020/12/09 12:09:05;;;;;;;59.97;28.63;;;4.50;99.90;;;;;;5052182;28;20039;-72
2020/12/09 12:11:31;;;;;;;58.20;30.23;;;4.40;99.90;;;;;;5057339;28;20040;-73
2020/12/09 12:13:56;;;;;;;66.93;31.90;;;4.40;99.90;;;;;;5051665;28;20111;-73
2020/12/09 12:16:23;;;;;;;60.28;28.83;;;4.40;99.90;;;;;;5049733;28;20021;-73
2020/12/09 12:18:50;;;;;;;60.38;28.90;;;4.50;99.90;;;;;;5056434;28;20104;-73
2020/12/09 12:21:17;;;;;;;56.75;27.98;;;4.40;99.90;;;;;;5059639;28;20024;-74
2020/12/09 12:23:45;;;;;;;56.47;29.27;;;4.40;99.90;;;;;;5062680;28;20037;-73
2020/12/09 12:26:14;;;;;;;57.35;29.38;;;4.40;99.90;;;;;;5058695;28;20307;-73
2020/12/09 12:28:39;;;;;;;60.00;29.73;;;4.50;99.90;;;;;;5057307;28;20074;-73
2020/12/09 12:31:05;;;;;;;54.78;27.92;;;4.60;99.90;;;;;;5051492;28;20111;-73
2020/12/09 12:33:31;;;;;;;52.42;26.17;;;4.60;99.90;;;;;;5052301;28;20025;-73